Time;durP1;ratioP1;P1;durP2;ratioP2;P2;SDS_P1;SDS_P2;PMS_P1;PMS_P2;Temp;Humidity;BMP_temperature;BMP_pressure;BME280_temperature;BME280_humidity;BME280_pressure;Samples;Min_cycle;Max_cycle;Signal;HPM_P1;HPM_P2
2023/08/25 00:00:24;;;;;;;22.67;17.80;;;;;;;18.52;100.00;99641.22;5006946;28;20237;-66
2023/08/25 00:02:49;;;;;;;18.50;16.70;;;;;;;18.47;100.00;99649.47;5021906;28;20520;-66
2023/08/25 00:05:15;;;;;;;18.33;16.43;;;;;;;18.44;100.00;99641.94;5010886;28;20286;-66
2023/08/25 00:07:40;;;;;;;21.50;18.83;;;;;;;18.46;100.00;99650.44;5013164;28;20632;-66
2023/08/25 00:10:05;;;;;;;19.90;17.47;;;;;;;18.44;100.00;99651.56;5004446;28;20546;-66
2023/08/25 00:12:31;;;;;;;21.00;18.93;;;;;;;18.34;100.00;99659.41;5027887;28;20190;-65
2023/08/25 00:14:56;;;;;;;22.87;19.13;;;;;;;18.30;100.00;99660.69;5013360;28;20626;-66
2023/08/25 00:17:21;;;;;;;21.33;19.13;;;;;;;18.15;100.00;99663.75;5013465;28;20383;-66
2023/08/25 00:19:47;;;;;;;20.67;18.40;;;;;;;18.14;100.00;99669.91;5013353;28;20182;-66
2023/08/25 00:22:13;;;;;;;19.40;17.40;;;;;;;18.15;100.00;99671.56;5013311;28;20230;-66
2023/08/25 00:24:38;;;;;;;18.43;16.60;;;;;;;18.13;100.00;99654.44;5005871;28;20487;-65
2023/08/25 00:27:04;;;;;;;23.43;18.63;;;;;;;18.16;100.00;99646.34;5002444;28;20274;-66
2023/08/25 00:29:29;;;;;;;20.07;17.97;;;;;;;18.25;100.00;99637.66;5013463;28;20313;-66
2023/08/25 00:31:54;;;;;;;21.47;19.47;;;;;;;18.27;100.00;99640.13;5012017;28;20655;-66
2023/08/25 00:34:19;;;;;;;21.93;18.53;;;;;;;18.28;100.00;99650.38;5006499;28;20186;-66
2023/08/25 00:36:45;;;;;;;22.97;20.17;;;;;;;18.29;100.00;99635.59;5013429;28;20182;-65
2023/08/25 00:39:10;;;;;;;23.10;20.80;;;;;;;18.32;100.00;99633.53;5013795;28;20181;-66
2023/08/25 00:41:36;;;;;;;24.37;21.73;;;;;;;18.28;100.00;99632.16;5004123;28;20225;-67
2023/08/25 00:44:02;;;;;;;23.30;20.93;;;;;;;18.28;100.00;99639.16;5016180;28;20175;-67
2023/08/25 00:46:28;;;;;;;25.27;20.87;;;;;;;18.28;100.00;99626.16;5011783;28;20286;-65
2023/08/25 00:48:53;;;;;;;25.07;22.40;;;;;;;18.26;100.00;99633.28;5013090;28;20705;-66
2023/08/25 00:51:19;;;;;;;24.17;21.77;;;;;;;18.19;100.00;99633.03;5012639;28;20225;-65
2023/08/25 00:53:46;;;;;;;27.47;21.30;;;;;;;18.21;100.00;99631.94;5018505;28;20599;-65
2023/08/25 00:56:13;;;;;;;26.57;23.80;;;;;;;18.16;100.00;99630.72;5012575;28;20210;-66
2023/08/25 00:58:39;;;;;;;24.93;22.53;;;;;;;18.06;100.00;99629.00;5012791;28;20233;-65
2023/08/25 01:01:05;;;;;;;26.23;23.47;;;;;;;18.06;100.00;99623.78;5011119;28;20723;-65
2023/08/25 01:03:31;;;;;;;26.50;23.73;;;;;;;18.09;100.00;99627.88;5019580;28;20178;-65
2023/08/25 01:05:57;;;;;;;25.83;23.37;;;;;;;18.10;100.00;99631.28;5012227;28;20374;-66
2023/08/25 01:08:22;;;;;;;24.93;22.47;;;;;;;18.14;100.00;99632.66;5012477;28;20269;-66
2023/08/25 01:11:00;;;;;;;28.43;23.50;;;;;;;18.09;100.00;99635.69;5008495;28;20312;-66
2023/08/25 01:13:41;;;;;;;24.20;21.80;;;;;;;18.06;100.00;99636.78;5008573;28;20183;-65
2023/08/25 01:16:11;;;;;;;25.23;22.67;;;;;;;18.05;100.00;99642.97;5000366;28;20301;-65
2023/08/25 01:18:40;;;;;;;26.67;22.57;;;;;;;18.03;100.00;99638.88;5012515;28;20638;-66
2023/08/25 01:21:06;;;;;;;26.93;21.70;;;;;;;18.07;100.00;99637.59;5010621;28;20250;-66
2023/08/25 01:23:37;;;;;;;27.13;24.37;;;;;;;18.06;100.00;99634.19;5019399;28;20278;-66
2023/08/25 01:26:04;;;;;;;27.97;24.97;;;;;;;18.02;100.00;99606.00;5012002;28;20213;-66
2023/08/25 01:28:30;;;;;;;26.20;23.40;;;;;;;18.06;100.00;99607.38;5011879;28;20195;-65
2023/08/25 01:30:56;;;;;;;27.43;24.53;;;;;;;18.04;100.00;99601.47;5009183;28;20229;-66
2023/08/25 01:33:32;;;;;;;26.27;23.50;;;;;;;18.02;100.00;99603.38;5020604;28;20206;-66
2023/08/25 01:36:41;;;;;;;27.70;24.90;;;;;;;18.00;100.00;99595.72;5011848;28;20194;-66
2023/08/25 01:39:10;;;;;;;28.17;25.13;;;;;;;18.08;100.00;99607.22;4980839;28;20199;-66
2023/08/25 01:41:40;;;;;;;34.83;27.63;;;;;;;18.09;100.00;99614.88;4977971;28;20548;-65
2023/08/25 01:44:06;;;;;;;29.80;26.70;;;;;;;18.03;100.00;99607.63;4989868;28;20277;-65
2023/08/25 01:46:34;;;;;;;29.10;26.13;;;;;;;18.08;100.00;99607.22;4990098;28;20206;-65
2023/08/25 01:49:02;;;;;;;31.67;28.37;;;;;;;18.08;100.00;99620.22;4990440;28;20195;-66
2023/08/25 01:51:29;;;;;;;27.27;24.20;;;;;;;18.02;100.00;99632.84;4991479;28;20215;-65
2023/08/25 01:53:55;;;;;;;27.87;24.97;;;;;;;18.05;100.00;99635.16;5007186;28;20191;-65
2023/08/25 01:56:21;;;;;;;28.43;25.70;;;;;;;18.04;100.00;99637.91;5008829;28;20215;-65
2023/08/25 01:58:46;;;;;;;26.20;23.57;;;;;;;18.03;100.00;99638.88;5009787;28;20194;-65
2023/08/25 02:01:12;;;;;;;25.63;22.90;;;;;;;17.96;100.00;99636.03;4990141;28;20310;-65
2023/08/25 02:03:37;;;;;;;23.43;20.93;;;;;;;17.92;100.00;99634.63;4990148;28;20663;-64
2023/08/25 02:06:02;;;;;;;24.70;20.40;;;;;;;17.85;100.00;99633.53;4989099;28;20203;-66
2023/08/25 02:08:28;;;;;;;22.23;19.80;;;;;;;17.73;100.00;99631.13;4990084;28;20245;-66
2023/08/25 02:10:53;;;;;;;24.63;20.37;;;;;;;17.65;100.00;99630.19;4986375;28;20229;-66
2023/08/25 02:13:19;;;;;;;22.73;20.33;;;;;;;17.68;100.00;99609.13;5009592;28;20189;-66
2023/08/25 02:15:45;;;;;;;23.63;18.60;;;;;;;17.69;100.00;99614.16;5016414;28;20198;-66
2023/08/25 02:18:11;;;;;;;21.47;19.37;;;;;;;17.68;100.00;99604.72;5031569;28;20182;-66
2023/08/25 02:20:38;;;;;;;22.07;19.87;;;;;;;17.68;100.00;99604.72;5017889;28;20595;-66
2023/08/25 02:23:04;;;;;;;21.67;19.43;;;;;;;17.64;100.00;99612.94;5022504;28;20580;-66
2023/08/25 02:25:29;;;;;;;25.50;18.97;;;;;;;17.63;100.00;99598.31;5010875;28;20214;-65
2023/08/25 02:27:56;;;;;;;23.20;20.90;;;;;;;17.61;100.00;99595.84;5011250;28;20203;-66
2023/08/25 02:30:21;;;;;;;22.17;20.17;;;;;;;17.51;100.00;99593.25;5006487;28;20174;-65
2023/08/25 02:32:47;;;;;;;21.30;19.17;;;;;;;17.53;100.00;99599.16;5043857;28;20229;-66
2023/08/25 02:35:12;;;;;;;20.53;18.57;;;;;;;17.50;100.00;99603.81;5030432;28;20222;-65
2023/08/25 02:37:59;;;;;;;28.60;21.20;;;;;;;17.48;100.00;99596.16;5031335;28;20192;-65
2023/08/25 02:40:26;;;;;;;22.20;19.90;;;;;;;17.56;100.00;99596.28;5022871;28;20616;-65
2023/08/25 02:42:52;;;;;;;23.70;19.83;;;;;;;17.58;100.00;99594.34;5042547;28;20217;-66
2023/08/25 02:45:17;;;;;;;24.67;20.60;;;;;;;17.54;100.00;99587.78;5030672;28;20201;-65
2023/08/25 02:47:42;;;;;;;23.87;20.00;;;;;;;17.49;100.00;99591.78;5030656;28;20193;-65
2023/08/25 02:50:08;;;;;;;24.23;19.00;;;;;;;17.41;100.00;99582.91;5020376;28;20186;-66
2023/08/25 02:52:34;;;;;;;19.97;17.87;;;;;;;17.40;100.00;99586.47;5028646;28;20189;-66
2023/08/25 02:55:00;;;;;;;18.40;16.50;;;;;;;17.45;100.00;99580.03;5030740;28;20285;-66
2023/08/25 02:57:25;;;;;;;20.90;18.53;;;;;;;17.32;100.00;99569.94;5030957;28;20288;-66
2023/08/25 02:59:50;;;;;;;20.90;18.83;;;;;;;17.37;100.00;99563.34;5030930;28;20210;-65
2023/08/25 03:02:15;;;;;;;19.17;17.17;;;;;;;17.41;100.00;99556.91;5017861;28;20284;-66
2023/08/25 03:04:41;;;;;;;21.43;15.83;;;;;;;17.33;100.00;99563.75;5012937;28;20183;-66
2023/08/25 03:07:06;;;;;;;18.27;16.47;;;;;;;17.42;100.00;99555.13;5015034;28;20234;-66
2023/08/25 03:09:31;;;;;;;19.73;17.10;;;;;;;17.46;100.00;99560.88;5015202;28;20183;-66
2023/08/25 03:11:57;;;;;;;19.37;17.07;;;;;;;17.45;100.00;99556.63;5021495;28;20222;-66
2023/08/25 03:14:26;;;;;;;19.70;17.43;;;;;;;17.40;100.00;99559.63;5023270;28;20178;-66
2023/08/25 03:16:51;;;;;;;19.27;17.07;;;;;;;17.33;100.00;99553.34;5034400;28;20239;-66
2023/08/25 03:19:16;;;;;;;18.57;16.47;;;;;;;17.30;100.00;99540.66;5035137;28;20190;-66
2023/08/25 03:21:42;;;;;;;21.90;17.00;;;;;;;17.33;100.00;99535.16;5022670;28;20240;-66
2023/08/25 03:24:07;;;;;;;20.83;18.63;;;;;;;17.41;100.00;99543.09;5016909;28;20611;-66
2023/08/25 03:26:32;;;;;;;20.70;18.50;;;;;;;17.40;100.00;99541.44;5014516;28;20210;-66
2023/08/25 03:28:58;;;;;;;38.80;21.43;;;;;;;17.48;100.00;99540.75;5014704;28;20692;-66
2023/08/25 03:31:23;;;;;;;34.77;21.43;;;;;;;17.50;100.00;99544.00;4975891;28;20686;-65
2023/08/25 03:33:48;;;;;;;66.33;26.20;;;;;;;17.60;100.00;99526.63;5013858;28;20179;-66
2023/08/25 03:36:13;;;;;;;50.40;25.07;;;;;;;17.58;100.00;99521.53;5014037;28;20178;-65
2023/08/25 03:38:39;;;;;;;137.90;29.47;;;;;;;17.67;100.00;99513.84;5014510;28;20182;-65
2023/08/25 03:41:04;;;;;;;67.10;26.57;;;;;;;17.66;100.00;99507.84;5012425;28;20243;-66
2023/08/25 03:43:29;;;;;;;109.00;27.77;;;;;;;17.76;100.00;99507.75;5021709;28;20183;-65
2023/08/25 03:45:55;;;;;;;178.97;32.97;;;;;;;17.83;100.00;99508.81;5013365;28;20249;-66
2023/08/25 03:48:20;;;;;;;272.73;39.00;;;;;;;17.79;100.00;99504.88;5014229;28;20585;-65
2023/08/25 03:50:46;;;;;;;229.47;34.23;;;;;;;17.74;100.00;99500.09;5009939;28;20600;-65
2023/08/25 03:53:11;;;;;;;189.23;34.90;;;;;;;17.61;100.00;99498.81;5012767;28;20236;-66
2023/08/25 03:55:37;;;;;;;299.67;39.67;;;;;;;17.59;100.00;99493.75;5013236;28;20187;-66
2023/08/25 03:58:02;;;;;;;143.50;30.47;;;;;;;17.64;100.00;99478.53;5014031;28;20187;-65
2023/08/25 04:00:28;;;;;;;456.87;47.50;;;;;;;17.75;100.00;99478.34;5007130;28;20237;-65
2023/08/25 04:02:53;;;;;;;140.30;33.40;;;;;;;17.81;100.00;99474.34;5013113;28;20687;-65
2023/08/25 04:05:18;;;;;;;115.80;30.17;;;;;;;17.90;100.00;99470.06;5013597;28;20203;-66
2023/08/25 04:07:43;;;;;;;187.67;33.20;;;;;;;17.87;100.00;99475.53;5013782;28;20600;-65
2023/08/25 04:10:09;;;;;;;303.37;42.33;;;;;;;17.82;100.00;99478.56;5004843;28;20186;-64
2023/08/25 04:12:34;;;;;;;195.47;36.43;;;;;;;17.64;100.00;99483.75;5009436;28;20184;-65
2023/08/25 04:14:59;;;;;;;277.67;37.97;;;;;;;17.68;100.00;99486.88;5006841;28;20237;-65
2023/08/25 04:17:25;;;;;;;137.83;34.57;;;;;;;17.82;100.00;99486.38;5013316;28;20631;-65
2023/08/25 04:19:50;;;;;;;218.70;38.63;;;;;;;17.89;100.00;99482.22;5013438;28;20562;-66
2023/08/25 04:22:15;;;;;;;249.17;39.70;;;;;;;17.88;100.00;99498.00;5013440;28;20349;-65
2023/08/25 04:24:40;;;;;;;145.93;33.67;;;;;;;17.85;100.00;99524.28;5006889;28;20193;-65
2023/08/25 04:27:06;;;;;;;188.57;38.23;;;;;;;17.93;100.00;99547.81;5003598;28;20564;-65
2023/08/25 04:29:31;;;;;;;143.83;35.27;;;;;;;18.00;100.00;99584.53;5013368;28;20274;-65
2023/08/25 04:31:57;;;;;;;187.13;36.33;;;;;;;18.04;100.00;99583.25;5012672;28;20336;-64
2023/08/25 04:34:22;;;;;;;313.27;38.57;;;;;;;18.02;100.00;99556.53;5006927;28;20202;-65
2023/08/25 04:36:47;;;;;;;516.87;49.47;;;;;;;17.93;100.00;99539.19;5013455;28;20193;-65
2023/08/25 04:39:13;;;;;;;118.37;31.03;;;;;;;17.67;100.00;99483.44;5013296;28;20183;-61
2023/08/25 04:41:39;;;;;;;139.37;32.80;;;;;;;17.73;100.00;99454.25;4999341;28;20223;-62
2023/08/25 04:44:05;;;;;;;171.93;39.17;;;;;;;17.72;100.00;99462.22;5004971;28;20183;-58
2023/08/25 04:46:31;;;;;;;73.90;33.97;;;;;;;17.77;100.00;99487.78;5013168;28;20223;-57
2023/08/25 04:48:57;;;;;;;63.00;34.73;;;;;;;17.78;100.00;99487.63;5013484;28;20638;-57
2023/08/25 04:51:22;;;;;;;47.67;30.57;;;;;;;17.80;100.00;99475.31;5008140;28;20301;-58
2023/08/25 04:53:47;;;;;;;46.87;32.87;;;;;;;17.86;100.00;99485.13;5011406;28;20194;-58
2023/08/25 04:56:12;;;;;;;44.63;32.70;;;;;;;17.94;100.00;99497.44;5010978;28;20214;-58
2023/08/25 04:58:38;;;;;;;46.20;32.30;;;;;;;17.90;100.00;99519.47;5012308;28;20638;-58
2023/08/25 05:01:04;;;;;;;43.13;32.43;;;;;;;17.75;100.00;99519.97;5004088;28;20230;-57
2023/08/25 05:03:29;;;;;;;39.17;31.23;;;;;;;17.85;100.00;99508.66;5020326;28;20175;-57
2023/08/25 05:05:54;;;;;;;42.03;32.53;;;;;;;17.96;100.00;99518.09;5011955;28;20210;-58
2023/08/25 05:08:20;;;;;;;41.77;32.43;;;;;;;18.00;100.00;99535.88;5012787;28;20186;-58
2023/08/25 05:10:45;;;;;;;36.70;30.47;;;;;;;17.99;100.00;99526.44;5008022;28;20595;-58
2023/08/25 05:13:10;;;;;;;39.43;29.70;;;;;;;18.03;100.00;99524.38;5022497;28;20187;-58
2023/08/25 05:15:35;;;;;;;37.23;29.83;;;;;;;18.04;100.00;99516.41;5012093;28;20182;-59
2023/08/25 05:18:01;;;;;;;35.23;29.30;;;;;;;18.11;100.00;99521.03;5012978;28;20262;-58
2023/08/25 05:20:26;;;;;;;33.67;27.27;;;;;;;18.21;100.00;99530.41;5005460;28;20280;-58
2023/08/25 05:22:52;;;;;;;35.33;28.23;;;;;;;18.27;100.00;99546.41;5011522;28;20249;-58
2023/08/25 05:25:20;;;;;;;32.27;26.60;;;;;;;18.26;100.00;99549.97;5012181;28;20218;-59
2023/08/25 05:27:46;;;;;;;27.00;24.13;;;;;;;18.22;100.00;99555.47;5011476;28;20725;-59
2023/08/25 05:30:11;;;;;;;27.57;24.67;;;;;;;18.23;100.00;99558.91;5003441;28;20361;-59
2023/08/25 05:32:37;;;;;;;25.03;22.43;;;;;;;18.08;100.00;99560.38;5011236;28;20179;-59
2023/08/25 05:35:03;;;;;;;24.63;22.03;;;;;;;18.06;100.00;99563.13;5012276;28;20257;-59
2023/08/25 05:37:29;;;;;;;23.80;21.23;;;;;;;18.20;100.00;99600.84;5012138;28;20183;-59
2023/08/25 05:39:54;;;;;;;24.10;21.70;;;;;;;18.19;100.00;99615.63;5010983;28;20229;-58
2023/08/25 05:42:19;;;;;;;22.63;20.47;;;;;;;18.25;100.00;99601.22;5017171;28;20588;-59
2023/08/25 05:44:44;;;;;;;22.83;20.37;;;;;;;18.29;100.00;99589.53;5011500;28;20191;-58
2023/08/25 05:47:10;;;;;;;24.33;21.73;;;;;;;18.29;100.00;99591.34;5011908;28;20229;-59
2023/08/25 05:49:35;;;;;;;27.63;24.87;;;;;;;18.33;100.00;99624.75;5012404;28;20187;-58
2023/08/25 05:52:00;;;;;;;26.87;24.17;;;;;;;18.40;100.00;99609.38;5002627;28;20733;-58
2023/08/25 05:54:25;;;;;;;27.87;25.10;;;;;;;18.43;100.00;99590.84;5008910;28;20317;-58
2023/08/25 05:56:53;;;;;;;29.07;25.33;;;;;;;18.47;100.00;99605.22;5012069;28;20194;-58
2023/08/25 05:59:18;;;;;;;28.73;25.63;;;;;;;18.47;100.00;99588.75;5010561;28;20175;-58
2023/08/25 06:01:43;;;;;;;27.43;24.27;;;;;;;18.59;100.00;99591.97;5004831;28;20230;-58
2023/08/25 06:04:08;;;;;;;32.37;27.40;;;;;;;18.71;100.00;99599.41;5010907;28;20179;-59
2023/08/25 06:06:34;;;;;;;26.20;23.53;;;;;;;18.78;100.00;99593.59;5011891;28;20207;-59
2023/08/25 06:08:59;;;;;;;27.80;24.70;;;;;;;18.85;100.00;99576.41;5011740;28;20300;-59
2023/08/25 06:11:24;;;;;;;27.37;24.60;;;;;;;18.96;100.00;99570.97;5011421;28;20309;-59
2023/08/25 06:13:50;;;;;;;23.57;21.37;;;;;;;19.02;100.00;99564.34;5015024;28;20190;-59
2023/08/25 06:16:15;;;;;;;25.43;22.83;;;;;;;19.05;100.00;99560.63;5011462;28;20340;-59
2023/08/25 06:18:42;;;;;;;26.50;23.77;;;;;;;19.22;100.00;99572.00;5012100;28;20187;-59
2023/08/25 06:21:08;;;;;;;23.17;21.07;;;;;;;18.95;100.00;99565.94;5010200;28;20237;-59
2023/08/25 06:23:33;;;;;;;20.43;18.73;;;;;;;18.80;100.00;99555.19;5017314;28;20277;-59
2023/08/25 06:25:59;;;;;;;19.97;18.07;;;;;;;18.90;100.00;99535.06;5011157;28;20281;-59
2023/08/25 06:28:24;;;;;;;18.47;16.63;;;;;;;18.98;100.00;99511.72;5010199;28;20190;-59
2023/08/25 06:30:50;;;;;;;18.57;16.77;;;;;;;18.93;100.00;99482.69;5006626;28;20230;-59
2023/08/25 06:33:15;;;;;;;18.57;16.93;;;;;;;19.11;100.00;99500.88;5019722;28;20190;-60
2023/08/25 06:35:41;;;;;;;18.53;16.60;;;;;;;19.23;100.00;99511.88;5010660;28;20183;-60
2023/08/25 06:38:06;;;;;;;18.27;16.43;;;;;;;19.28;100.00;99498.38;5011303;28;20197;-60
2023/08/25 06:40:36;;;;;;;19.60;17.60;;;;;;;19.09;100.00;99515.03;5008590;28;20226;-59
2023/08/25 06:43:02;;;;;;;18.57;16.67;;;;;;;19.08;100.00;99535.06;5023882;28;20167;-58
2023/08/25 06:45:28;;;;;;;18.90;16.97;;;;;;;19.26;100.00;99557.66;5014906;28;20260;-60
2023/08/25 06:47:57;;;;;;;25.23;17.83;;;;;;;19.29;100.00;99557.38;5015526;28;20535;-60
2023/08/25 06:50:23;;;;;;;17.77;16.17;;;;;;;19.24;100.00;99562.22;5008437;28;20232;-60
2023/08/25 06:52:49;;;;;;;19.50;17.40;;;;;;;19.27;100.00;99565.34;5026238;28;20596;-60
2023/08/25 06:55:17;;;;;;;20.73;16.03;;;;;;;19.31;100.00;99555.41;5013559;28;20185;-59
2023/08/25 06:57:42;;;;;;;17.50;15.77;;;;;;;19.38;100.00;99545.22;5014461;28;20279;-60
2023/08/25 07:00:08;;;;;;;18.97;16.80;;;;;;;19.57;100.00;99534.53;5005857;28;20602;-60
2023/08/25 07:02:33;;;;;;;17.00;15.57;;;;;;;19.74;100.00;99532.00;5024548;28;20191;-59
2023/08/25 07:04:59;;;;;;;16.90;15.50;;;;;;;19.45;100.00;99533.16;5004985;28;20193;-58
2023/08/25 07:07:27;;;;;;;17.07;15.47;;;;;;;19.59;100.00;99521.34;5014727;28;20171;-59
2023/08/25 07:09:53;;;;;;;14.47;13.27;;;;;;;19.78;100.00;99513.28;5014500;28;20174;-60
2023/08/25 07:12:18;;;;;;;15.03;13.67;;;;;;;19.57;100.00;99534.53;5020094;28;20292;-59
2023/08/25 07:14:44;;;;;;;14.23;12.80;;;;;;;19.68;100.00;99525.63;5014466;28;20258;-59
2023/08/25 07:17:09;;;;;;;14.97;13.10;;;;;;;19.93;100.00;99523.13;5014635;28;20639;-58
2023/08/25 07:19:34;;;;;;;12.77;11.57;;;;;;;19.95;100.00;99527.22;5014667;28;20261;-60
2023/08/25 07:22:00;;;;;;;13.93;12.63;;;;;;;19.52;100.00;99557.66;5019054;28;20273;-59
2023/08/25 07:24:25;;;;;;;14.87;12.53;;;;;;;19.64;100.00;99550.38;5014454;28;20187;-59
2023/08/25 07:26:50;;;;;;;14.60;13.27;;;;;;;19.86;100.00;99551.66;5010754;28;20246;-58
2023/08/25 07:29:15;;;;;;;15.07;13.73;;;;;;;19.94;100.00;99559.50;5014614;28;20191;-59
2023/08/25 07:31:41;;;;;;;17.03;15.30;;;;;;;20.11;100.00;99541.28;4990263;28;20232;-58
2023/08/25 07:34:06;;;;;;;16.53;14.20;;;;;;;20.09;100.00;99546.66;5030263;28;20236;-58
2023/08/25 07:36:31;;;;;;;15.67;13.53;;;;;;;20.32;100.00;99541.66;5032874;28;20205;-59
2023/08/25 07:38:56;;;;;;;13.97;12.73;;;;;;;20.63;100.00;99529.78;5034038;28;20182;-59
2023/08/25 07:41:22;;;;;;;13.50;12.00;;;;;;;21.19;100.00;99531.72;5022354;28;20225;-60
2023/08/25 07:43:48;;;;;;;11.97;10.97;;;;;;;21.72;100.00;99511.94;5019390;28;20602;-60
2023/08/25 07:46:14;;;;;;;10.77;9.67;;;;;;;22.12;100.00;99495.38;5013537;28;20670;-58
2023/08/25 07:48:39;;;;;;;8.80;7.67;;;;;;;22.94;100.00;99515.69;5014006;28;20243;-59
2023/08/25 07:51:04;;;;;;;8.97;7.67;;;;;;;23.01;100.00;99526.31;5018278;28;20225;-59
2023/08/25 07:53:31;;;;;;;9.97;7.70;;;;;;;22.64;100.00;99530.56;5041591;28;20288;-59
2023/08/25 07:55:57;;;;;;;8.80;7.97;;;;;;;23.04;100.00;99524.13;5032798;28;20263;-60
2023/08/25 07:58:22;;;;;;;9.17;7.17;;;;;;;23.31;100.00;99521.09;5033588;28;20178;-58
2023/08/25 08:00:49;;;;;;;8.60;6.77;;;;;;;23.62;100.00;99526.16;5019833;28;20712;-59
2023/08/25 08:03:15;;;;;;;8.35;6.50;;;;;;;25.00;100.00;99517.41;5013229;28;20694;-59
2023/08/25 08:05:40;;;;;;;8.02;5.72;;;;;;;26.96;100.00;99509.06;5012789;28;20290;-58
2023/08/25 08:08:06;;;;;;;9.50;6.57;;;;;;;28.22;100.00;99511.41;5012439;28;20522;-58
2023/08/25 08:10:31;;;;;;;6.18;5.00;;;;;;;29.30;100.00;99515.56;5011287;28;20298;-58
2023/08/25 08:12:57;;;;;;;6.00;5.25;;;;;;;30.83;100.00;99529.53;5044205;28;20206;-58
2023/08/25 08:15:23;;;;;;;5.75;4.75;;;;;;;32.20;98.78;99533.59;5033046;28;20182;-60
2023/08/25 08:17:49;;;;;;;7.30;6.18;;;;;;;31.69;97.89;99528.16;5033189;28;20653;-57
2023/08/25 08:20:14;;;;;;;8.73;4.97;;;;;;;32.11;96.48;99535.00;5023146;28;20270;-60
2023/08/25 08:22:40;;;;;;;4.05;2.30;;;;;;;29.49;100.00;99530.66;5025737;28;20227;-59
2023/08/25 08:25:10;;;;;;;4.78;3.10;;;;;;;29.38;100.00;99537.50;5012547;28;20182;-59
2023/08/25 08:27:36;;;;;;;5.70;3.05;;;;;;;27.97;100.00;99531.47;5013410;28;20529;-56
2023/08/25 08:30:02;;;;;;;7.75;2.40;;;;;;;27.31;100.00;99532.53;5003615;28;20201;-62
2023/08/25 08:32:28;;;;;;;5.35;2.67;;;;;;;27.09;100.00;99524.03;5039386;28;20596;-58
2023/08/25 08:34:53;;;;;;;5.85;2.80;;;;;;;27.83;100.00;99538.63;5031958;28;20194;-59
2023/08/25 08:37:18;;;;;;;2.75;2.50;;;;;;;28.20;100.00;99535.44;5026167;28;20186;-58
2023/08/25 08:39:44;;;;;;;3.67;2.28;;;;;;;26.08;100.00;99530.06;5030883;28;20228;-58
2023/08/25 08:42:12;;;;;;;5.32;2.58;;;;;;;27.17;100.00;99531.75;5018829;28;20721;-58
2023/08/25 08:44:50;;;;;;;5.50;2.70;;;;;;;27.90;100.00;99528.06;5008975;28;20209;-59
2023/08/25 08:47:16;;;;;;;5.38;2.65;;;;;;;28.32;100.00;99548.78;5022171;28;20560;-58
2023/08/25 08:49:44;;;;;;;3.58;2.78;;;;;;;27.36;100.00;99545.91;4999043;28;20202;-59
2023/08/25 08:52:10;;;;;;;4.50;2.75;;;;;;;25.64;100.00;99554.22;5025472;28;20225;-58
2023/08/25 08:54:37;;;;;;;6.03;2.92;;;;;;;25.99;100.00;99559.44;5032251;28;20261;-58
2023/08/25 08:57:04;;;;;;;4.03;2.60;;;;;;;27.70;100.00;99565.94;5032320;28;20224;-58
2023/08/25 08:59:29;;;;;;;3.10;2.45;;;;;;;29.25;100.00;99572.84;5032235;28;20182;-59
2023/08/25 09:01:57;;;;;;;3.00;2.65;;;;;;;29.49;100.00;99565.91;5019369;28;20296;-59
2023/08/25 09:04:23;;;;;;;3.35;2.55;;;;;;;30.43;100.00;99564.69;5012499;28;20284;-59
2023/08/25 09:06:51;;;;;;;4.90;2.72;;;;;;;32.31;94.36;99559.34;5012625;28;20654;-59
2023/08/25 09:09:19;;;;;;;3.60;2.70;;;;;;;32.82;91.21;99583.31;5007918;28;20191;-59
2023/08/25 09:11:45;;;;;;;3.30;2.38;;;;;;;32.45;91.01;99581.13;5020828;28;20325;-59
2023/08/25 09:14:11;;;;;;;5.63;2.40;;;;;;;30.86;100.00;99584.84;5033831;28;20301;-59
2023/08/25 09:16:36;;;;;;;3.40;2.45;;;;;;;29.20;100.00;99578.00;5031986;28;20265;-59
2023/08/25 09:19:03;;;;;;;3.65;2.70;;;;;;;28.31;100.00;99573.59;5032037;28;20201;-60
2023/08/25 09:21:29;;;;;;;5.18;2.53;;;;;;;27.96;100.00;99584.53;5020486;28;20415;-60
2023/08/25 09:23:56;;;;;;;3.20;1.90;;;;;;;26.93;100.00;99578.88;5012148;28;20687;-60
2023/08/25 09:26:22;;;;;;;4.80;2.20;;;;;;;27.21;100.00;99559.34;5005117;28;20206;-59
2023/08/25 09:28:47;;;;;;;3.10;2.33;;;;;;;27.41;100.00;99567.25;5012144;28;20175;-59
2023/08/25 09:31:27;;;;;;;5.53;2.50;;;;;;;27.22;100.00;99564.41;5020538;28;20275;-60
2023/08/25 09:34:01;;;;;;;6.35;2.22;;;;;;;27.16;100.00;99546.75;5028724;28;20276;-60
2023/08/25 09:36:27;;;;;;;2.70;2.10;;;;;;;27.17;100.00;99537.03;5028502;28;20221;-60
2023/08/25 09:38:53;;;;;;;4.63;2.33;;;;;;;27.25;100.00;99536.78;5031860;28;20196;-60
2023/08/25 09:41:25;;;;;;;4.05;2.17;;;;;;;27.61;100.00;99518.84;5020816;28;20713;-60
2023/08/25 09:43:58;;;;;;;2.67;1.85;;;;;;;27.31;100.00;99495.56;5007701;28;20219;-60
2023/08/25 09:46:28;;;;;;;4.57;2.13;;;;;;;27.74;100.00;99499.47;5009626;28;20217;-59
2023/08/25 09:49:00;;;;;;;3.17;2.03;;;;;;;27.85;100.00;99488.25;5012247;28;20759;-59
2023/08/25 09:51:29;;;;;;;6.00;2.20;;;;;;;28.17;100.00;99491.72;5022087;28;20224;-59
2023/08/25 09:53:55;;;;;;;4.82;2.25;;;;;;;27.92;100.00;99490.84;5035862;28;20190;-59
2023/08/25 09:56:21;;;;;;;2.70;1.77;;;;;;;28.01;100.00;99482.44;5030934;28;20213;-59
2023/08/25 09:58:47;;;;;;;2.25;2.03;;;;;;;28.62;100.00;99464.28;5031918;28;20190;-59
2023/08/25 10:01:13;;;;;;;3.70;2.42;;;;;;;29.77;100.00;99461.16;5020405;28;20295;-60
2023/08/25 10:03:40;;;;;;;2.70;2.20;;;;;;;31.34;96.13;99462.63;5017423;28;20240;-60
2023/08/25 10:06:06;;;;;;;2.95;2.08;;;;;;;32.43;89.71;99465.31;5011075;28;20202;-60
2023/08/25 10:08:32;;;;;;;4.15;2.20;;;;;;;32.54;85.06;99467.06;5010164;28;20270;-58
2023/08/25 10:10:58;;;;;;;2.97;1.70;;;;;;;32.43;86.26;99458.13;5004931;28;20230;-60
2023/08/25 10:13:27;;;;;;;1.83;1.63;;;;;;;31.94;87.92;99468.50;5022056;28;20561;-59
2023/08/25 10:15:53;;;;;;;4.30;1.88;;;;;;;31.23;94.13;99456.31;5019392;28;20186;-60
2023/08/25 10:18:19;;;;;;;5.28;2.35;;;;;;;30.26;96.57;99456.56;5031286;28;20549;-60
2023/08/25 10:20:46;;;;;;;4.03;2.50;;;;;;;29.95;99.06;99455.03;5026457;28;20236;-60
2023/08/25 10:23:12;;;;;;;2.78;2.28;;;;;;;28.59;100.00;99448.03;5038306;28;20213;-60
2023/08/25 10:25:38;;;;;;;4.25;2.03;;;;;;;27.46;100.00;99445.97;5030302;28;20251;-60
2023/08/25 10:28:06;;;;;;;2.92;2.13;;;;;;;28.70;100.00;99430.66;5030577;28;20182;-59
2023/08/25 10:30:32;;;;;;;1.95;1.80;;;;;;;30.13;100.00;99426.81;5012970;28;20586;-59
2023/08/25 10:33:11;;;;;;;4.57;1.98;;;;;;;31.48;92.97;99436.56;5042840;28;20185;-60
2023/08/25 10:35:44;;;;;;;2.78;1.80;;;;;;;32.66;87.79;99424.34;5030948;28;20186;-60
2023/08/25 10:38:18;;;;;;;2.78;2.17;;;;;;;33.28;78.64;99425.91;5030778;28;20182;-60
2023/08/25 10:40:51;;;;;;;4.10;2.17;;;;;;;30.53;90.74;99431.47;5026140;28;20597;-60
2023/08/25 10:43:27;;;;;;;2.78;2.00;;;;;;;29.55;96.19;99427.22;5039862;28;20606;-60
2023/08/25 10:45:52;;;;;;;2.78;1.92;;;;;;;28.42;100.00;99431.91;5030472;28;20201;-61
2023/08/25 10:48:21;;;;;;;2.65;2.20;;;;;;;28.89;100.00;99447.34;5030895;28;20185;-59
2023/08/25 10:50:47;;;;;;;3.15;2.00;;;;;;;29.32;100.00;99435.09;5026268;28;20232;-60
2023/08/25 10:53:38;;;;;;;2.25;2.03;;;;;;;28.67;100.00;99450.41;5040337;28;20181;-60
2023/08/25 10:56:14;;;;;;;2.75;1.88;;;;;;;28.83;100.00;99455.16;5029099;28;20193;-60
2023/08/25 10:58:40;;;;;;;6.60;2.03;;;;;;;29.28;100.00;99453.22;5030966;28;20236;-60
2023/08/25 11:01:05;;;;;;;4.07;2.00;;;;;;;29.43;100.00;99455.53;5019587;28;20222;-60
2023/08/25 11:03:48;;;;;;;6.20;2.00;;;;;;;29.07;98.95;99447.34;5009937;28;20183;-61
2023/08/25 11:06:42;;;;;;;2.85;2.05;;;;;;;29.37;97.56;99451.13;5010770;28;20210;-59
2023/08/25 11:09:10;;;;;;;2.95;1.80;;;;;;;29.25;99.06;99448.38;5002677;28;20329;-58
2023/08/25 11:11:37;;;;;;;3.85;2.20;;;;;;;29.21;98.74;99463.91;5012545;28;20217;-60